sensor_id;sensor_type;location;lat;lon;timestamp;pressure;altitude;pressure_sealevel;temperature;humidity
20043;BME280;10182;52.896;6.496;2022-10-16T00:00:09;100708.03;;;11.86;100.00
20043;BME280;10182;52.896;6.496;2022-10-16T00:05:13;100704.44;;;11.87;100.00
20043;BME280;10182;52.896;6.496;2022-10-16T00:10:15;100705.22;;;11.89;100.00
20043;BME280;10182;52.896;6.496;2022-10-16T00:15:16;100702.31;;;11.94;100.00
20043;BME280;10182;52.896;6.496;2022-10-16T00:20:19;100714.69;;;11.95;100.00
20043;BME280;10182;52.896;6.496;2022-10-16T00:25:21;100711.38;;;11.90;100.00
20043;BME280;10182;52.896;6.496;2022-10-16T00:30:23;100715.91;;;11.88;100.00
20043;BME280;10182;52.896;6.496;2022-10-16T00:35:26;100723.19;;;11.84;100.00
20043;BME280;10182;52.896;6.496;2022-10-16T00:40:28;100717.09;;;11.82;100.00
20043;BME280;10182;52.896;6.496;2022-10-16T00:45:30;100694.91;;;11.83;100.00
20043;BME280;10182;52.896;6.496;2022-10-16T00:50:33;100712.66;;;11.82;100.00
20043;BME280;10182;52.896;6.496;2022-10-16T00:55:35;100710.75;;;11.84;100.00
20043;BME280;10182;52.896;6.496;2022-10-16T01:00:37;100710.75;;;11.84;100.00
20043;BME280;10182;52.896;6.496;2022-10-16T01:05:51;100707.72;;;11.92;100.00
20043;BME280;10182;52.896;6.496;2022-10-16T01:10:57;100715.97;;;11.86;100.00
20043;BME280;10182;52.896;6.496;2022-10-16T01:16:06;100711.56;;;11.87;100.00
20043;BME280;10182;52.896;6.496;2022-10-16T01:21:15;100717.72;;;11.87;100.00
20043;BME280;10182;52.896;6.496;2022-10-16T01:26:31;100720.63;;;11.82;100.00
20043;BME280;10182;52.896;6.496;2022-10-16T01:31:40;100709.19;;;11.80;100.00
20043;BME280;10182;52.896;6.496;2022-10-16T01:36:46;100712.56;;;11.84;100.00
20043;BME280;10182;52.896;6.496;2022-10-16T01:41:53;100711.16;;;11.94;100.00
20043;BME280;10182;52.896;6.496;2022-10-16T01:46:57;100710.28;;;11.94;100.00
20043;BME280;10182;52.896;6.496;2022-10-16T01:52:04;100708.41;;;11.96;100.00
20043;BME280;10182;52.896;6.496;2022-10-16T01:57:07;100694.03;;;12.00;100.00
20043;BME280;10182;52.896;6.496;2022-10-16T02:02:12;100702.63;;;12.05;100.00
20043;BME280;10182;52.896;6.496;2022-10-16T02:07:16;100694.75;;;12.04;100.00
20043;BME280;10182;52.896;6.496;2022-10-16T02:12:23;100695.75;;;12.01;100.00
20043;BME280;10182;52.896;6.496;2022-10-16T02:17:28;100696.09;;;11.95;100.00
20043;BME280;10182;52.896;6.496;2022-10-16T02:22:32;100708.28;;;11.99;100.00
20043;BME280;10182;52.896;6.496;2022-10-16T02:27:40;100709.97;;;12.00;100.00
20043;BME280;10182;52.896;6.496;2022-10-16T02:32:46;100710.84;;;12.00;100.00
20043;BME280;10182;52.896;6.496;2022-10-16T02:37:50;100702.00;;;12.00;100.00
20043;BME280;10182;52.896;6.496;2022-10-16T02:42:54;100708.03;;;12.04;100.00
20043;BME280;10182;52.896;6.496;2022-10-16T02:47:57;100716.78;;;12.06;100.00
20043;BME280;10182;52.896;6.496;2022-10-16T02:52:58;100718.56;;;12.05;100.00
20043;BME280;10182;52.896;6.496;2022-10-16T02:58:00;100729.34;;;12.02;100.00
20043;BME280;10182;52.896;6.496;2022-10-16T03:03:03;100727.53;;;12.02;100.00
20043;BME280;10182;52.896;6.496;2022-10-16T03:08:05;100726.88;;;11.99;100.00
20043;BME280;10182;52.896;6.496;2022-10-16T03:13:06;100734.13;;;11.95;100.00
20043;BME280;10182;52.896;6.496;2022-10-16T03:18:09;100742.00;;;11.97;100.00
20043;BME280;10182;52.896;6.496;2022-10-16T03:23:11;100750.84;;;11.97;100.00
20043;BME280;10182;52.896;6.496;2022-10-16T03:28:13;100746.53;;;11.95;100.00
20043;BME280;10182;52.896;6.496;2022-10-16T03:33:16;100758.00;;;11.95;100.00
20043;BME280;10182;52.896;6.496;2022-10-16T03:38:17;100754.25;;;11.99;100.00
20043;BME280;10182;52.896;6.496;2022-10-16T03:43:19;100749.78;;;12.00;100.00
20043;BME280;10182;52.896;6.496;2022-10-16T03:48:22;100757.06;;;11.96;100.00
20043;BME280;10182;52.896;6.496;2022-10-16T03:53:24;100742.88;;;11.97;100.00
20043;BME280;10182;52.896;6.496;2022-10-16T03:58:25;100753.84;;;11.90;100.00
20043;BME280;10182;52.896;6.496;2022-10-16T04:03:28;100752.47;;;11.82;100.00
20043;BME280;10182;52.896;6.496;2022-10-16T04:08:30;100763.91;;;11.83;100.00
20043;BME280;10182;52.896;6.496;2022-10-16T04:13:34;100753.47;;;11.80;100.00
20043;BME280;10182;52.896;6.496;2022-10-16T04:18:37;100768.44;;;11.81;100.00
20043;BME280;10182;52.896;6.496;2022-10-16T04:23:39;100765.78;;;11.81;100.00
20043;BME280;10182;52.896;6.496;2022-10-16T04:28:41;100783.75;;;11.76;100.00
20043;BME280;10182;52.896;6.496;2022-10-16T04:33:44;100802.47;;;11.73;100.00
20043;BME280;10182;52.896;6.496;2022-10-16T04:38:45;100810.41;;;11.73;100.00
20043;BME280;10182;52.896;6.496;2022-10-16T04:43:47;100817.63;;;11.71;100.00
20043;BME280;10182;52.896;6.496;2022-10-16T04:48:50;100821.91;;;11.73;100.00
20043;BME280;10182;52.896;6.496;2022-10-16T04:53:52;100823.56;;;11.76;100.00
20043;BME280;10182;52.896;6.496;2022-10-16T04:58:53;100839.16;;;11.82;100.00
20043;BME280;10182;52.896;6.496;2022-10-16T05:03:56;100835.41;;;11.86;100.00
20043;BME280;10182;52.896;6.496;2022-10-16T05:08:58;100835.41;;;11.86;100.00
20043;BME280;10182;52.896;6.496;2022-10-16T05:14:00;100831.75;;;11.89;100.00
20043;BME280;10182;52.896;6.496;2022-10-16T05:19:03;100848.56;;;11.89;100.00
20043;BME280;10182;52.896;6.496;2022-10-16T05:24:05;100852.91;;;11.90;100.00
20043;BME280;10182;52.896;6.496;2022-10-16T05:29:06;100855.63;;;11.89;100.00
20043;BME280;10182;52.896;6.496;2022-10-16T05:34:10;100861.75;;;11.91;100.00
20043;BME280;10182;52.896;6.496;2022-10-16T05:39:12;100867.69;;;11.96;100.00
20043;BME280;10182;52.896;6.496;2022-10-16T05:44:14;100865.03;;;11.96;100.00
20043;BME280;10182;52.896;6.496;2022-10-16T05:49:17;100868.56;;;11.96;100.00
20043;BME280;10182;52.896;6.496;2022-10-16T05:54:19;100879.94;;;11.98;100.00
20043;BME280;10182;52.896;6.496;2022-10-16T05:59:21;100883.63;;;11.96;100.00
20043;BME280;10182;52.896;6.496;2022-10-16T06:04:24;100889.72;;;11.98;100.00
20043;BME280;10182;52.896;6.496;2022-10-16T06:09:26;100903.25;;;11.92;100.00
20043;BME280;10182;52.896;6.496;2022-10-16T06:14:27;100899.66;;;11.93;100.00
20043;BME280;10182;52.896;6.496;2022-10-16T06:19:30;100917.47;;;11.91;100.00
20043;BME280;10182;52.896;6.496;2022-10-16T06:24:32;100922.06;;;11.87;100.00
20043;BME280;10182;52.896;6.496;2022-10-16T06:29:34;100928.31;;;11.86;100.00
20043;BME280;10182;52.896;6.496;2022-10-16T06:34:37;100933.63;;;11.86;100.00
20043;BME280;10182;52.896;6.496;2022-10-16T06:39:40;100930.88;;;11.88;100.00
20043;BME280;10182;52.896;6.496;2022-10-16T06:44:42;100927.47;;;11.85;100.00
20043;BME280;10182;52.896;6.496;2022-10-16T06:49:45;100934.25;;;11.91;100.00
20043;BME280;10182;52.896;6.496;2022-10-16T06:54:46;100944.03;;;11.91;100.00
20043;BME280;10182;52.896;6.496;2022-10-16T06:59:48;100954.47;;;11.94;100.00
20043;BME280;10182;52.896;6.496;2022-10-16T07:04:51;100970.28;;;11.97;100.00
20043;BME280;10182;52.896;6.496;2022-10-16T07:09:53;100975.22;;;12.05;100.00
20043;BME280;10182;52.896;6.496;2022-10-16T07:14:54;100984.94;;;12.06;100.00
20043;BME280;10182;52.896;6.496;2022-10-16T07:19:58;100991.72;;;12.11;100.00
20043;BME280;10182;52.896;6.496;2022-10-16T07:24:59;100999.28;;;12.19;100.00
20043;BME280;10182;52.896;6.496;2022-10-16T07:30:01;101009.53;;;12.27;100.00
20043;BME280;10182;52.896;6.496;2022-10-16T07:35:05;101014.69;;;12.30;100.00
20043;BME280;10182;52.896;6.496;2022-10-16T07:40:08;101010.19;;;12.32;100.00
20043;BME280;10182;52.896;6.496;2022-10-16T07:45:10;101042.69;;;12.37;100.00
20043;BME280;10182;52.896;6.496;2022-10-16T07:50:13;101039.72;;;12.43;100.00
20043;BME280;10182;52.896;6.496;2022-10-16T07:55:15;101050.97;;;12.48;100.00
20043;BME280;10182;52.896;6.496;2022-10-16T08:00:17;101063.75;;;12.59;100.00
20043;BME280;10182;52.896;6.496;2022-10-16T08:05:20;101071.09;;;12.72;100.00
20043;BME280;10182;52.896;6.496;2022-10-16T08:10:24;101075.72;;;12.85;100.00
20043;BME280;10182;52.896;6.496;2022-10-16T08:15:26;101073.25;;;12.98;100.00
20043;BME280;10182;52.896;6.496;2022-10-16T08:20:30;101075.72;;;13.03;100.00
20043;BME280;10182;52.896;6.496;2022-10-16T08:25:34;101073.81;;;13.05;100.00
20043;BME280;10182;52.896;6.496;2022-10-16T08:30:36;101082.25;;;13.13;100.00
20043;BME280;10182;52.896;6.496;2022-10-16T08:35:40;101088.47;;;13.30;100.00
20043;BME280;10182;52.896;6.496;2022-10-16T08:40:42;101100.50;;;13.39;100.00
20043;BME280;10182;52.896;6.496;2022-10-16T08:45:52;101114.25;;;13.47;100.00
20043;BME280;10182;52.896;6.496;2022-10-16T08:51:03;101116.66;;;13.51;100.00
20043;BME280;10182;52.896;6.496;2022-10-16T08:56:06;101130.91;;;13.50;100.00
20043;BME280;10182;52.896;6.496;2022-10-16T09:01:12;101132.47;;;13.54;100.00
20043;BME280;10182;52.896;6.496;2022-10-16T09:06:26;101137.59;;;13.75;99.97
20043;BME280;10182;52.896;6.496;2022-10-16T09:11:41;101139.25;;;13.94;97.76
20043;BME280;10182;52.896;6.496;2022-10-16T09:16:52;101144.69;;;14.08;97.28
20043;BME280;10182;52.896;6.496;2022-10-16T09:22:01;101146.69;;;14.20;95.99
20043;BME280;10182;52.896;6.496;2022-10-16T09:27:12;101166.38;;;14.34;95.92
20043;BME280;10182;52.896;6.496;2022-10-16T09:32:18;101177.38;;;14.44;93.14
20043;BME280;10182;52.896;6.496;2022-10-16T09:37:23;101193.69;;;14.53;92.97
20043;BME280;10182;52.896;6.496;2022-10-16T09:42:30;101200.66;;;14.56;93.12
20043;BME280;10182;52.896;6.496;2022-10-16T09:47:37;101205.53;;;14.65;93.38
20043;BME280;10182;52.896;6.496;2022-10-16T09:52:43;101203.84;;;14.79;93.33
20043;BME280;10182;52.896;6.496;2022-10-16T09:57:50;101218.81;;;14.97;92.61
20043;BME280;10182;52.896;6.496;2022-10-16T10:02:53;101221.78;;;15.23;92.61
20043;BME280;10182;52.896;6.496;2022-10-16T10:07:58;101219.94;;;15.23;89.83
20043;BME280;10182;52.896;6.496;2022-10-16T10:13:01;101219.09;;;15.23;89.32
20043;BME280;10182;52.896;6.496;2022-10-16T10:18:15;101227.34;;;15.34;89.23
20043;BME280;10182;52.896;6.496;2022-10-16T10:23:22;101233.28;;;15.23;88.43
20043;BME280;10182;52.896;6.496;2022-10-16T10:28:46;101237.13;;;15.03;89.34
20043;BME280;10182;52.896;6.496;2022-10-16T10:33:53;101241.84;;;15.14;91.44
20043;BME280;10182;52.896;6.496;2022-10-16T10:38:59;101248.72;;;15.18;88.39
20043;BME280;10182;52.896;6.496;2022-10-16T10:44:07;101268.59;;;15.29;88.76
20043;BME280;10182;52.896;6.496;2022-10-16T10:49:23;101269.84;;;15.37;88.58
20043;BME280;10182;52.896;6.496;2022-10-16T10:54:35;101276.47;;;15.46;85.41
20043;BME280;10182;52.896;6.496;2022-10-16T10:59:53;101285.59;;;15.42;85.12
20043;BME280;10182;52.896;6.496;2022-10-16T11:05:19;101295.69;;;15.37;85.42
20043;BME280;10182;52.896;6.496;2022-10-16T11:10:26;101301.00;;;15.53;86.88
20043;BME280;10182;52.896;6.496;2022-10-16T11:15:31;101296.63;;;15.66;84.45
20043;BME280;10182;52.896;6.496;2022-10-16T11:20:37;101302.91;;;15.81;83.74
20043;BME280;10182;52.896;6.496;2022-10-16T11:25:42;101309.22;;;15.95;78.75
20043;BME280;10182;52.896;6.496;2022-10-16T11:30:47;101310.66;;;15.70;76.75
20043;BME280;10182;52.896;6.496;2022-10-16T11:35:53;101317.63;;;15.42;75.85
20043;BME280;10182;52.896;6.496;2022-10-16T11:41:00;101315.88;;;15.11;77.08
20043;BME280;10182;52.896;6.496;2022-10-16T11:46:10;101331.59;;;14.99;78.62
20043;BME280;10182;52.896;6.496;2022-10-16T11:51:17;101324.63;;;15.13;78.74
20043;BME280;10182;52.896;6.496;2022-10-16T11:56:22;101338.56;;;15.34;77.06
20043;BME280;10182;52.896;6.496;2022-10-16T12:01:28;101352.34;;;15.42;76.54
20043;BME280;10182;52.896;6.496;2022-10-16T12:06:36;101348.66;;;15.75;78.57
20043;BME280;10182;52.896;6.496;2022-10-16T12:11:41;101360.72;;;15.66;76.42
20043;BME280;10182;52.896;6.496;2022-10-16T12:16:50;101357.78;;;15.40;77.05
20043;BME280;10182;52.896;6.496;2022-10-16T12:21:55;101364.88;;;15.56;78.66
20043;BME280;10182;52.896;6.496;2022-10-16T12:26:59;101369.69;;;15.65;75.19
20043;BME280;10182;52.896;6.496;2022-10-16T12:32:02;101379.69;;;15.46;75.27
20043;BME280;10182;52.896;6.496;2022-10-16T12:37:11;101383.06;;;15.49;73.00
20043;BME280;10182;52.896;6.496;2022-10-16T12:42:22;101384.91;;;15.79;71.00
20043;BME280;10182;52.896;6.496;2022-10-16T12:47:36;101392.94;;;15.95;70.81
20043;BME280;10182;52.896;6.496;2022-10-16T12:52:39;101398.69;;;16.03;70.38
20043;BME280;10182;52.896;6.496;2022-10-16T12:57:50;101405.41;;;15.95;66.70
20043;BME280;10182;52.896;6.496;2022-10-16T13:03:30;101419.47;;;15.82;66.81
20043;BME280;10182;52.896;6.496;2022-10-16T13:08:58;101421.81;;;15.56;66.83
20043;BME280;10182;52.896;6.496;2022-10-16T13:14:22;101416.28;;;15.76;66.75
20043;BME280;10182;52.896;6.496;2022-10-16T13:19:32;101425.84;;;15.80;67.17
20043;BME280;10182;52.896;6.496;2022-10-16T13:24:47;101438.78;;;15.87;68.77
20043;BME280;10182;52.896;6.496;2022-10-16T13:29:58;101453.94;;;15.71;69.53
20043;BME280;10182;52.896;6.496;2022-10-16T13:35:02;101437.31;;;15.66;70.63
20043;BME280;10182;52.896;6.496;2022-10-16T13:40:18;101445.47;;;15.79;70.15
20043;BME280;10182;52.896;6.496;2022-10-16T13:45:24;101450.13;;;15.75;70.51
20043;BME280;10182;52.896;6.496;2022-10-16T13:50:26;101458.59;;;15.83;69.78
20043;BME280;10182;52.896;6.496;2022-10-16T13:55:28;101462.53;;;15.92;71.28
20043;BME280;10182;52.896;6.496;2022-10-16T14:00:31;101455.31;;;15.94;71.76
20043;BME280;10182;52.896;6.496;2022-10-16T14:05:33;101466.72;;;15.82;71.54
20043;BME280;10182;52.896;6.496;2022-10-16T14:10:35;101469.47;;;15.80;72.92
20043;BME280;10182;52.896;6.496;2022-10-16T14:15:39;101471.13;;;15.83;73.76
20043;BME280;10182;52.896;6.496;2022-10-16T14:20:40;101475.31;;;15.71;74.12
20043;BME280;10182;52.896;6.496;2022-10-16T14:25:42;101480.03;;;15.66;75.08
20043;BME280;10182;52.896;6.496;2022-10-16T14:30:52;101508.97;;;15.57;75.58
20043;BME280;10182;52.896;6.496;2022-10-16T14:36:03;101506.47;;;15.54;76.06
20043;BME280;10182;52.896;6.496;2022-10-16T14:41:06;101512.06;;;15.50;76.71
20043;BME280;10182;52.896;6.496;2022-10-16T14:46:12;101520.16;;;15.48;77.49
20043;BME280;10182;52.896;6.496;2022-10-16T14:51:16;101524.88;;;15.43;78.27
20043;BME280;10182;52.896;6.496;2022-10-16T14:56:20;101522.22;;;15.43;78.17
20043;BME280;10182;52.896;6.496;2022-10-16T15:01:24;101513.34;;;15.43;78.60
20043;BME280;10182;52.896;6.496;2022-10-16T15:06:26;101501.81;;;15.42;79.60
20043;BME280;10182;52.896;6.496;2022-10-16T15:11:27;101503.69;;;15.40;79.88
20043;BME280;10182;52.896;6.496;2022-10-16T15:16:31;101511.97;;;15.35;80.52
20043;BME280;10182;52.896;6.496;2022-10-16T15:21:33;101515.75;;;15.31;80.79
20043;BME280;10182;52.896;6.496;2022-10-16T15:26:34;101513.59;;;15.22;81.51
20043;BME280;10182;52.896;6.496;2022-10-16T15:31:38;101522.16;;;15.11;82.25
20043;BME280;10182;52.896;6.496;2022-10-16T15:36:42;101528.94;;;15.01;83.34
20043;BME280;10182;52.896;6.496;2022-10-16T15:41:45;101537.59;;;14.88;84.04
20043;BME280;10182;52.896;6.496;2022-10-16T15:46:54;101532.72;;;14.79;84.51
20043;BME280;10182;52.896;6.496;2022-10-16T15:51:55;101538.53;;;14.70;86.45
20043;BME280;10182;52.896;6.496;2022-10-16T15:56:57;101526.66;;;14.58;87.39
20043;BME280;10182;52.896;6.496;2022-10-16T16:02:00;101521.00;;;14.47;88.19
20043;BME280;10182;52.896;6.496;2022-10-16T16:07:02;101533.06;;;14.36;89.12
20043;BME280;10182;52.896;6.496;2022-10-16T16:12:04;101532.75;;;14.25;89.74
20043;BME280;10182;52.896;6.496;2022-10-16T16:17:07;101545.91;;;14.11;92.29
20043;BME280;10182;52.896;6.496;2022-10-16T16:22:08;101542.69;;;13.85;94.56
20043;BME280;10182;52.896;6.496;2022-10-16T16:27:10;101540.88;;;13.66;95.74
20043;BME280;10182;52.896;6.496;2022-10-16T16:32:15;101542.47;;;13.51;97.17
20043;BME280;10182;52.896;6.496;2022-10-16T16:37:16;101552.53;;;13.45;97.44
20043;BME280;10182;52.896;6.496;2022-10-16T16:42:18;101554.78;;;13.33;97.50
20043;BME280;10182;52.896;6.496;2022-10-16T16:47:22;101568.56;;;13.23;97.91
20043;BME280;10182;52.896;6.496;2022-10-16T16:52:23;101576.03;;;13.14;98.68
20043;BME280;10182;52.896;6.496;2022-10-16T16:57:25;101573.66;;;13.08;98.96
20043;BME280;10182;52.896;6.496;2022-10-16T17:02:28;101583.50;;;12.85;99.84
20043;BME280;10182;52.896;6.496;2022-10-16T17:07:31;101595.44;;;12.75;100.00
20043;BME280;10182;52.896;6.496;2022-10-16T17:12:34;101603.81;;;12.66;100.00
20043;BME280;10182;52.896;6.496;2022-10-16T17:17:37;101611.16;;;12.59;100.00
20043;BME280;10182;52.896;6.496;2022-10-16T17:22:40;101610.00;;;12.44;100.00
20043;BME280;10182;52.896;6.496;2022-10-16T17:27:42;101627.28;;;12.32;100.00
20043;BME280;10182;52.896;6.496;2022-10-16T17:32:45;101626.59;;;12.05;100.00
20043;BME280;10182;52.896;6.496;2022-10-16T17:37:46;101627.88;;;11.95;100.00
20043;BME280;10182;52.896;6.496;2022-10-16T17:42:48;101623.59;;;11.91;100.00
20043;BME280;10182;52.896;6.496;2022-10-16T17:47:51;101621.78;;;11.91;100.00
20043;BME280;10182;52.896;6.496;2022-10-16T17:52:53;101642.94;;;11.94;100.00
20043;BME280;10182;52.896;6.496;2022-10-16T17:57:54;101658.88;;;11.94;100.00
20043;BME280;10182;52.896;6.496;2022-10-16T18:02:57;101653.56;;;11.94;100.00
20043;BME280;10182;52.896;6.496;2022-10-16T18:07:59;101655.31;;;11.94;100.00
20043;BME280;10182;52.896;6.496;2022-10-16T18:13:01;101645.81;;;12.12;100.00
20043;BME280;10182;52.896;6.496;2022-10-16T18:18:04;101654.63;;;12.12;100.00
20043;BME280;10182;52.896;6.496;2022-10-16T18:23:06;101658.47;;;12.05;100.00
20043;BME280;10182;52.896;6.496;2022-10-16T18:28:07;101671.00;;;12.01;100.00
20043;BME280;10182;52.896;6.496;2022-10-16T18:33:10;101664.94;;;11.98;100.00
20043;BME280;10182;52.896;6.496;2022-10-16T18:38:12;101644.78;;;12.16;100.00
20043;BME280;10182;52.896;6.496;2022-10-16T18:43:14;101658.44;;;12.29;100.00
20043;BME280;10182;52.896;6.496;2022-10-16T18:48:18;101660.56;;;12.19;100.00
20043;BME280;10182;52.896;6.496;2022-10-16T18:53:20;101669.06;;;12.05;100.00
20043;BME280;10182;52.896;6.496;2022-10-16T18:58:21;101675.63;;;11.96;100.00
20043;BME280;10182;52.896;6.496;2022-10-16T19:03:24;101676.31;;;11.76;100.00
20043;BME280;10182;52.896;6.496;2022-10-16T19:08:26;101667.44;;;11.52;100.00
20043;BME280;10182;52.896;6.496;2022-10-16T19:13:30;101680.19;;;11.42;100.00
20043;BME280;10182;52.896;6.496;2022-10-16T19:18:33;101676.03;;;11.35;100.00
20043;BME280;10182;52.896;6.496;2022-10-16T19:23:38;101688.31;;;11.38;100.00
20043;BME280;10182;52.896;6.496;2022-10-16T19:28:40;101689.41;;;11.32;100.00
20043;BME280;10182;52.896;6.496;2022-10-16T19:33:44;101686.53;;;11.38;100.00
20043;BME280;10182;52.896;6.496;2022-10-16T19:38:46;101690.53;;;11.50;100.00
20043;BME280;10182;52.896;6.496;2022-10-16T19:43:48;101686.53;;;11.63;100.00
20043;BME280;10182;52.896;6.496;2022-10-16T19:48:54;101694.03;;;11.76;100.00
20043;BME280;10182;52.896;6.496;2022-10-16T19:53:57;101700.78;;;11.84;100.00
20043;BME280;10182;52.896;6.496;2022-10-16T19:58:59;101699.63;;;11.92;100.00
20043;BME280;10182;52.896;6.496;2022-10-16T20:04:02;101691.22;;;12.06;100.00
20043;BME280;10182;52.896;6.496;2022-10-16T20:09:04;101703.38;;;12.11;100.00
20043;BME280;10182;52.896;6.496;2022-10-16T20:14:06;101700.59;;;12.14;100.00
20043;BME280;10182;52.896;6.496;2022-10-16T20:19:09;101707.47;;;12.20;100.00
20043;BME280;10182;52.896;6.496;2022-10-16T20:24:11;101704.25;;;12.12;100.00
20043;BME280;10182;52.896;6.496;2022-10-16T20:29:13;101696.47;;;12.07;100.00
20043;BME280;10182;52.896;6.496;2022-10-16T20:34:16;101696.69;;;12.01;100.00
20043;BME280;10182;52.896;6.496;2022-10-16T20:39:18;101696.25;;;11.88;100.00
20043;BME280;10182;52.896;6.496;2022-10-16T20:44:19;101709.91;;;11.77;100.00
20043;BME280;10182;52.896;6.496;2022-10-16T20:49:22;101703.94;;;11.71;100.00
20043;BME280;10182;52.896;6.496;2022-10-16T20:54:24;101693.59;;;11.88;100.00
20043;BME280;10182;52.896;6.496;2022-10-16T20:59:26;101671.22;;;11.95;100.00
20043;BME280;10182;52.896;6.496;2022-10-16T21:04:29;101686.94;;;12.01;100.00
20043;BME280;10182;52.896;6.496;2022-10-16T21:09:30;101669.78;;;12.10;100.00
20043;BME280;10182;52.896;6.496;2022-10-16T21:14:32;101657.91;;;12.19;100.00
20043;BME280;10182;52.896;6.496;2022-10-16T21:19:35;101650.56;;;12.26;100.00
20043;BME280;10182;52.896;6.496;2022-10-16T21:24:37;101656.66;;;12.29;100.00
20043;BME280;10182;52.896;6.496;2022-10-16T21:29:39;101668.19;;;12.28;100.00
20043;BME280;10182;52.896;6.496;2022-10-16T21:34:42;101662.16;;;12.25;100.00
20043;BME280;10182;52.896;6.496;2022-10-16T21:39:44;101671.03;;;12.24;100.00
20043;BME280;10182;52.896;6.496;2022-10-16T21:44:45;101665.72;;;12.24;100.00
20043;BME280;10182;52.896;6.496;2022-10-16T21:49:48;101660.41;;;12.24;100.00
20043;BME280;10182;52.896;6.496;2022-10-16T21:54:50;101649.66;;;12.27;100.00
20043;BME280;10182;52.896;6.496;2022-10-16T21:59:52;101662.09;;;12.26;100.00
20043;BME280;10182;52.896;6.496;2022-10-16T22:04:55;101647.91;;;12.26;100.00
20043;BME280;10182;52.896;6.496;2022-10-16T22:09:56;101640.91;;;12.25;100.00
20043;BME280;10182;52.896;6.496;2022-10-16T22:14:58;101635.53;;;12.26;100.00
20043;BME280;10182;52.896;6.496;2022-10-16T22:20:01;101640.03;;;12.24;100.00
20043;BME280;10182;52.896;6.496;2022-10-16T22:25:03;101630.50;;;12.18;100.00
20043;BME280;10182;52.896;6.496;2022-10-16T22:30:06;101616.94;;;12.26;100.00
20043;BME280;10182;52.896;6.496;2022-10-16T22:35:09;101608.16;;;12.24;100.00
20043;BME280;10182;52.896;6.496;2022-10-16T22:40:12;101608.16;;;12.24;100.00
20043;BME280;10182;52.896;6.496;2022-10-16T22:45:13;101593.31;;;12.18;100.00
20043;BME280;10182;52.896;6.496;2022-10-16T22:50:16;101602.34;;;12.14;100.00
20043;BME280;10182;52.896;6.496;2022-10-16T22:55:18;101598.13;;;12.09;100.00
20043;BME280;10182;52.896;6.496;2022-10-16T23:00:20;101592.56;;;12.15;100.00
20043;BME280;10182;52.896;6.496;2022-10-16T23:05:23;101607.66;;;12.14;100.00
20043;BME280;10182;52.896;6.496;2022-10-16T23:10:25;101595.66;;;12.04;100.00
20043;BME280;10182;52.896;6.496;2022-10-16T23:15:29;101592.44;;;11.96;100.00
20043;BME280;10182;52.896;6.496;2022-10-16T23:20:32;101598.03;;;11.88;100.00
20043;BME280;10182;52.896;6.496;2022-10-16T23:25:34;101597.19;;;11.86;100.00
20043;BME280;10182;52.896;6.496;2022-10-16T23:30:37;101590.84;;;11.90;100.00
20043;BME280;10182;52.896;6.496;2022-10-16T23:35:40;101592.25;;;12.00;100.00
20043;BME280;10182;52.896;6.496;2022-10-16T23:40:42;101600.88;;;12.07;100.00
20043;BME280;10182;52.896;6.496;2022-10-16T23:45:43;101615.97;;;12.05;100.00
20043;BME280;10182;52.896;6.496;2022-10-16T23:50:46;101604.94;;;12.16;100.00
20043;BME280;10182;52.896;6.496;2022-10-16T23:55:48;101607.16;;;12.27;100.00
